Time;durP1;ratioP1;P1;durP2;ratioP2;P2;SDS_P1;SDS_P2;PMS_P1;PMS_P2;Temp;Humidity;BMP_temperature;BMP_pressure;BME280_temperature;BME280_humidity;BME280_pressure;Samples;Min_cycle;Max_cycle;Signal;HPM_P1;HPM_P2
2022/04/22 00:00:38;;;;;;;;;;;;;;;;;;4937990;29;19926;-77
2022/04/22 00:03:04;;;;;;;;;;;;;;;;;;4937389;29;20069;-77
2022/04/22 00:05:32;;;;;;;;;;;;;;;;;;4937094;29;19919;-78
2022/04/22 00:07:57;;;;;;;;;;;;;;;;;;4937819;29;19918;-77
2022/04/22 00:10:25;;;;;;;;;;;;;;;;;;4937868;29;19937;-76
2022/04/22 00:12:52;;;;;;;;;;;;;;;;;;4924038;29;19922;-77
2022/04/22 00:15:18;;;;;;;;;;;;;;;;;;4937915;29;19929;-78
2022/04/22 00:17:43;;;;;;;;;;;;;;;;;;4936760;29;20236;-76
2022/04/22 00:20:09;;;;;;;;;;;;;;;;;;4937326;29;19911;-77
2022/04/22 00:22:39;;;;;;;;;;;;;;;;;;4937740;29;20009;-77
2022/04/22 00:25:04;;;;;;;;;;;;;;;;;;4936038;29;20255;-77
2022/04/22 00:27:32;;;;;;;;;;;;;;;;;;4937598;29;20001;-77
2022/04/22 00:29:57;;;;;;;;;;;;;;;;;;4937398;29;20065;-77
2022/04/22 00:32:23;;;;;;;;;;;;;;;;;;4936580;29;19993;-77
2022/04/22 00:34:48;;;;;;;;;;;;;;;;;;4937709;29;19925;-77
2022/04/22 00:37:16;;;;;;;;;;;;;;;;;;4921628;29;19911;-77
2022/04/22 00:39:41;;;;;;;;;;;;;;;;;;4931609;29;19915;-78
2022/04/22 00:42:10;;;;;;;;;;;;;;;;;;4929772;29;20360;-77
2022/04/22 00:44:35;;;;;;;;;;;;;;;;;;4945434;29;19919;-77
2022/04/22 00:47:00;;;;;;;;;;;;;;;;;;4937166;29;20343;-78
2022/04/22 00:49:28;;;;;;;;;;;;;;;;;;4936091;29;20321;-77
2022/04/22 00:51:53;;;;;;;;;;;;;;;;;;4937233;29;19911;-78
2022/04/22 00:54:18;;;;;;;;;;;;;;;;;;4935784;29;19926;-77
2022/04/22 00:56:44;;;;;;;;;;;;;;;;;;4936359;29;20360;-78
2022/04/22 00:59:10;;;;;;;;;;;;;;;;;;4936092;29;20536;-77
2022/04/22 01:01:35;;;;;;;;;;;;;;;;;;4935725;29;19919;-78
2022/04/22 01:09:47;;;;;;;;;;;;;;;;;;4935992;29;19918;-77
2022/04/22 01:12:12;;;;;;;;;;;;;;;;;;4934756;29;19941;-78
2022/04/22 01:14:39;;;;;;;;;;;;;;;;;;4935018;29;19926;-77
2022/04/22 01:17:05;;;;;;;;;;;;;;;;;;4936034;29;19957;-77
2022/04/22 01:19:31;;;;;;;;;;;;;;;;;;4936756;29;19949;-77
2022/04/22 01:21:56;;;;;;;;;;;;;;;;;;4936833;29;20368;-77
2022/04/22 01:24:24;;;;;;;;;;;;;;;;;;4935223;29;20048;-76
2022/04/22 01:26:52;;;;;;;;;;;;;;;;;;4936910;29;19915;-76
2022/04/22 01:29:19;;;;;;;;;;;;;;;;;;4935659;29;19925;-77
2022/04/22 01:31:45;;;;;;;;;;;;;;;;;;4937310;29;19922;-77
2022/04/22 01:34:10;;;;;;;;;;;;;;;;;;4935930;29;19914;-76
2022/04/22 01:36:35;;;;;;;;;;;;;;;;;;4936418;29;20276;-76
2022/04/22 01:39:00;;;;;;;;;;;;;;;;;;4926191;29;19926;-78
2022/04/22 01:41:27;;;;;;;;;;;;;;;;;;4918257;29;20332;-78
2022/04/22 01:43:52;;;;;;;;;;;;;;;;;;4927261;29;19914;-77
2022/04/22 01:46:17;;;;;;;;;;;;;;;;;;4935828;29;19929;-77
2022/04/22 01:48:42;;;;;;;;;;;;;;;;;;4935724;29;19914;-77
2022/04/22 01:51:08;;;;;;;;;;;;;;;;;;4937154;29;19934;-77
2022/04/22 01:53:36;;;;;;;;;;;;;;;;;;4936207;29;20002;-77
2022/04/22 01:56:03;;;;;;;;;;;;;;;;;;4936870;29;19925;-77
2022/04/22 01:58:28;;;;;;;;;;;;;;;;;;4936119;29;20013;-78
2022/04/22 02:00:53;;;;;;;;;;;;;;;;;;4932436;29;20001;-78
2022/04/22 02:03:18;;;;;;;;;;;;;;;;;;4935784;29;20252;-78
2022/04/22 02:05:44;;;;;;;;;;;;;;;;;;4935779;29;19915;-78
2022/04/22 02:08:09;;;;;;;;;;;;;;;;;;4939569;29;20337;-78
2022/04/22 02:10:34;;;;;;;;;;;;;;;;;;4939818;29;20320;-77
2022/04/22 02:13:00;;;;;;;;;;;;;;;;;;4940416;29;19993;-77
2022/04/22 02:15:26;;;;;;;;;;;;;;;;;;4940443;29;19911;-77
2022/04/22 02:17:52;;;;;;;;;;;;;;;;;;4940817;29;20009;-77
2022/04/22 02:20:17;;;;;;;;;;;;;;;;;;4939797;29;20017;-77
2022/04/22 02:22:42;;;;;;;;;;;;;;;;;;4938845;29;20001;-77
2022/04/22 02:25:08;;;;;;;;;;;;;;;;;;4940086;29;20021;-76
2022/04/22 02:30:18;;;;;;;;;;;;;;;;;;4939778;29;19934;-77
2022/04/22 02:32:43;;;;;;;;;;;;;;;;;;4940964;29;19923;-77
2022/04/22 02:35:13;;;;;;;;;;;;;;;;;;4940408;29;19998;-77
2022/04/22 02:37:39;;;;;;;;;;;;;;;;;;4940091;29;20329;-77
2022/04/22 02:40:04;;;;;;;;;;;;;;;;;;4939227;29;19914;-77
2022/04/22 02:45:34;;;;;;;;;;;;;;;;;;4939804;29;20034;-77
2022/04/22 02:47:58;;;;;;;;;;;;;;;;;;4939522;29;19965;-77
2022/04/22 02:50:26;;;;;;;;;;;;;;;;;;4939031;29;19918;-77
2022/04/22 02:52:51;;;;;;;;;;;;;;;;;;4939590;29;19922;-77
2022/04/22 02:55:16;;;;;;;;;;;;;;;;;;4939927;29;19910;-77
2022/04/22 02:57:43;;;;;;;;;;;;;;;;;;4938878;29;19918;-77
2022/04/22 03:00:09;;;;;;;;;;;;;;;;;;4923126;29;19924;-77
2022/04/22 03:02:35;;;;;;;;;;;;;;;;;;4939582;29;20015;-77
2022/04/22 03:05:00;;;;;;;;;;;;;;;;;;4938355;29;20281;-77
2022/04/22 03:07:26;;;;;;;;;;;;;;;;;;4938042;29;19929;-76
2022/04/22 03:09:51;;;;;;;;;;;;;;;;;;4941147;29;19911;-77
2022/04/22 03:12:16;;;;;;;;;;;;;;;;;;4942105;29;19914;-78
2022/04/22 03:14:43;;;;;;;;;;;;;;;;;;4940891;29;20368;-78
2022/04/22 03:17:09;;;;;;;;;;;;;;;;;;4939216;29;19921;-77
2022/04/22 03:19:34;;;;;;;;;;;;;;;;;;4938298;29;19919;-76
2022/04/22 03:21:59;;;;;;;;;;;;;;;;;;4939219;29;20333;-76
2022/04/22 03:24:24;;;;;;;;;;;;;;;;;;4939194;29;19915;-77
2022/04/22 03:26:50;;;;;;;;;;;;;;;;;;4939338;29;19976;-78
2022/04/22 03:29:15;;;;;;;;;;;;;;;;;;4938240;29;20264;-76
2022/04/22 03:31:40;;;;;;;;;;;;;;;;;;4938976;29;20344;-77
2022/04/22 03:34:05;;;;;;;;;;;;;;;;;;4939105;29;19911;-77
2022/04/22 03:36:34;;;;;;;;;;;;;;;;;;4939039;29;19918;-77
2022/04/22 03:38:59;;;;;;;;;;;;;;;;;;4938376;29;19918;-76
2022/04/22 03:41:27;;;;;;;;;;;;;;;;;;4921997;29;19915;-77
2022/04/22 03:43:52;;;;;;;;;;;;;;;;;;4938922;29;19914;-77
2022/04/22 03:46:17;;;;;;;;;;;;;;;;;;4938910;29;20387;-76
2022/04/22 03:48:42;;;;;;;;;;;;;;;;;;4937993;29;20099;-76
2022/04/22 03:51:07;;;;;;;;;;;;;;;;;;4938106;29;19949;-76
2022/04/22 03:53:37;;;;;;;;;;;;;;;;;;4938132;29;19957;-77
2022/04/22 03:58:10;;;;;;;;;;;;;;;;;;4938662;29;19911;-76
2022/04/22 03:58:48;;;;;;;;;;;;;;;;;;4938375;29;19914;-76
2022/04/22 04:01:13;;;;;;;;;;;;;;;;;;4934777;29;20029;-75
2022/04/22 04:03:38;;;;;;;;;;;;;;;;;;4936335;29;19974;-76
2022/04/22 04:06:04;;;;;;;;;;;;;;;;;;4937646;29;19924;-76
2022/04/22 04:08:29;;;;;;;;;;;;;;;;;;4936377;29;19911;-76
2022/04/22 04:16:27;;;;;;;;;;;;;;;;;;4919922;29;19922;-76
2022/04/22 04:23:14;;;;;;;;;;;;;;;;;;4937624;29;19910;-76
2022/04/22 04:24:24;;;;;;;;;;;;;;;;;;4937113;29;19985;-76
2022/04/22 04:26:52;;;;;;;;;;;;;;;;;;4938069;29;20348;-76
2022/04/22 04:29:18;;;;;;;;;;;;;;;;;;4937259;29;20392;-76
2022/04/22 04:31:43;;;;;;;;;;;;;;;;;;4937613;29;19926;-76
2022/04/22 04:34:08;;;;;;;;;;;;;;;;;;4937179;29;19911;-76
2022/04/22 04:36:34;;;;;;;;;;;;;;;;;;4938159;29;19946;-77
2022/04/22 04:38:59;;;;;;;;;;;;;;;;;;4938434;29;19910;-77
2022/04/22 04:41:24;;;;;;;;;;;;;;;;;;4937250;29;19941;-77
2022/04/22 04:43:49;;;;;;;;;;;;;;;;;;4938124;29;20313;-76
2022/04/22 04:46:14;;;;;;;;;;;;;;;;;;4936964;29;19918;-76
2022/04/22 04:48:40;;;;;;;;;;;;;;;;;;4938042;29;19911;-76
2022/04/22 04:51:05;;;;;;;;;;;;;;;;;;4937738;29;19915;-77
2022/04/22 04:53:30;;;;;;;;;;;;;;;;;;4929057;29;19915;-78
2022/04/22 04:55:55;;;;;;;;;;;;;;;;;;4937682;29;19910;-75
2022/04/22 04:58:23;;;;;;;;;;;;;;;;;;4937875;29;20320;-75
2022/04/22 05:00:48;;;;;;;;;;;;;;;;;;4937237;29;19919;-75
2022/04/22 05:03:13;;;;;;;;;;;;;;;;;;4936680;29;19915;-75
2022/04/22 05:05:39;;;;;;;;;;;;;;;;;;4936889;29;19914;-76
2022/04/22 05:08:04;;;;;;;;;;;;;;;;;;4936992;29;19950;-77
2022/04/22 05:10:30;;;;;;;;;;;;;;;;;;4936766;29;19997;-76
2022/04/22 05:12:55;;;;;;;;;;;;;;;;;;4936746;29;19910;-76
2022/04/22 05:15:22;;;;;;;;;;;;;;;;;;4936987;29;19911;-75
2022/04/22 05:17:48;;;;;;;;;;;;;;;;;;4937018;29;19914;-75
2022/04/22 05:20:14;;;;;;;;;;;;;;;;;;4937678;29;20004;-75
2022/04/22 05:22:39;;;;;;;;;;;;;;;;;;4936558;29;19923;-73
2022/04/22 05:25:05;;;;;;;;;;;;;;;;;;4937288;29;19914;-73
2022/04/22 05:27:31;;;;;;;;;;;;;;;;;;4937817;29;19907;-73
2022/04/22 05:32:42;;;;;;;;;;;;;;;;;;4937369;29;19926;-73
2022/04/22 05:35:08;;;;;;;;;;;;;;;;;;4937827;29;20253;-73
2022/04/22 05:37:43;;;;;;;;;;;;;;;;;;4936633;29;19911;-73
2022/04/22 05:40:11;;;;;;;;;;;;;;;;;;4937223;29;19922;-73
2022/04/22 05:42:38;;;;;;;;;;;;;;;;;;4939214;29;20318;-73
2022/04/22 05:45:05;;;;;;;;;;;;;;;;;;4941518;29;20332;-73
2022/04/22 05:47:30;;;;;;;;;;;;;;;;;;4941434;29;19918;-73
2022/04/22 05:49:58;;;;;;;;;;;;;;;;;;4937203;29;19922;-74
2022/04/22 05:52:23;;;;;;;;;;;;;;;;;;4931559;29;19914;-73
2022/04/22 05:54:49;;;;;;;;;;;;;;;;;;4939889;29;19915;-73
2022/04/22 05:57:14;;;;;;;;;;;;;;;;;;4940277;29;19926;-73
2022/04/22 05:59:39;;;;;;;;;;;;;;;;;;4941079;29;19922;-73
2022/04/22 06:02:05;;;;;;;;;;;;;;;;;;4940176;29;20313;-73
2022/04/22 06:04:30;;;;;;;;;;;;;;;;;;4939558;29;19919;-74
2022/04/22 06:06:55;;;;;;;;;;;;;;;;;;4940078;29;20452;-74
2022/04/22 06:12:04;;;;;;;;;;;;;;;;;;4940924;29;19922;-74
2022/04/22 06:14:29;;;;;;;;;;;;;;;;;;4939473;29;19922;-74
2022/04/22 06:16:55;;;;;;;;;;;;;;;;;;4939862;29;19911;-74
2022/04/22 06:19:20;;;;;;;;;;;;;;;;;;4938501;29;19973;-75
2022/04/22 06:21:45;;;;;;;;;;;;;;;;;;4922205;29;19946;-74
2022/04/22 06:24:11;;;;;;;;;;;;;;;;;;4940602;29;20257;-73
2022/04/22 06:26:37;;;;;;;;;;;;;;;;;;4939579;29;20005;-74
2022/04/22 06:29:06;;;;;;;;;;;;;;;;;;4940010;29;19910;-74
2022/04/22 06:31:31;;;;;;;;;;;;;;;;;;4925028;29;19919;-74
2022/04/22 06:33:56;;;;;;;;;;;;;;;;;;4940602;29;19910;-73
2022/04/22 06:36:22;;;;;;;;;;;;;;;;;;4939555;29;19973;-74
2022/04/22 06:38:47;;;;;;;;;;;;;;;;;;4927384;29;19981;-74
2022/04/22 06:46:41;;;;;;;;;;;;;;;;;;4920836;29;20339;-75
2022/04/22 06:49:07;;;;;;;;;;;;;;;;;;4928702;29;20001;-73
2022/04/22 06:51:32;;;;;;;;;;;;;;;;;;4938805;29;20014;-74
2022/04/22 06:54:00;;;;;;;;;;;;;;;;;;4923419;29;19918;-75
2022/04/22 06:56:27;;;;;;;;;;;;;;;;;;4927590;29;19925;-74
2022/04/22 06:58:52;;;;;;;;;;;;;;;;;;4926482;29;19915;-74
2022/04/22 07:01:17;;;;;;;;;;;;;;;;;;4935489;29;19938;-73
2022/04/22 07:03:43;;;;;;;;;;;;;;;;;;4930564;29;19914;-74
2022/04/22 07:06:08;;;;;;;;;;;;;;;;;;4930091;29;19929;-74
2022/04/22 07:08:33;;;;;;;;;;;;;;;;;;4919765;29;19911;-74
2022/04/22 07:10:59;;;;;;;;;;;;;;;;;;4919510;29;19961;-74
2022/04/22 07:13:24;;;;;;;;;;;;;;;;;;4933779;29;20013;-74
2022/04/22 07:15:50;;;;;;;;;;;;;;;;;;4939047;29;19922;-74
2022/04/22 07:18:17;;;;;;;;;;;;;;;;;;4938230;29;19915;-75
2022/04/22 07:20:43;;;;;;;;;;;;;;;;;;4936121;29;19915;-74
2022/04/22 07:23:12;;;;;;;;;;;;;;;;;;4933568;29;20276;-74
2022/04/22 07:25:38;;;;;;;;;;;;;;;;;;4939104;29;19919;-74
2022/04/22 07:28:04;;;;;;;;;;;;;;;;;;4939297;29;19921;-74
2022/04/22 07:30:29;;;;;;;;;;;;;;;;;;4939163;29;20017;-74
2022/04/22 07:32:55;;;;;;;;;;;;;;;;;;4938226;29;20307;-75
2022/04/22 07:35:20;;;;;;;;;;;;;;;;;;4937674;29;20319;-74
2022/04/22 07:37:47;;;;;;;;;;;;;;;;;;4938176;29;19910;-74
2022/04/22 07:40:13;;;;;;;;;;;;;;;;;;4937730;29;19957;-74
2022/04/22 07:42:42;;;;;;;;;;;;;;;;;;4938824;29;19915;-74
2022/04/22 07:47:51;;;;;;;;;;;;;;;;;;4939251;29;20035;-75
2022/04/22 07:50:19;;;;;;;;;;;;;;;;;;4938614;29;20340;-74
2022/04/22 07:52:47;;;;;;;;;;;;;;;;;;4938700;29;19942;-74
2022/04/22 07:55:13;;;;;;;;;;;;;;;;;;4936685;29;20013;-74
2022/04/22 07:57:40;;;;;;;;;;;;;;;;;;4937625;29;19918;-74
2022/04/22 08:00:05;;;;;;;;;;;;;;;;;;4937523;29;19910;-74
2022/04/22 08:02:30;;;;;;;;;;;;;;;;;;4936815;29;19989;-74
2022/04/22 08:04:56;;;;;;;;;;;;;;;;;;4936126;29;19914;-74
2022/04/22 08:07:23;;;;;;;;;;;;;;;;;;4937656;29;19921;-74
2022/04/22 08:09:48;;;;;;;;;;;;;;;;;;4937060;29;19929;-74
2022/04/22 08:12:19;;;;;;;;;;;;;;;;;;4937276;29;19914;-74
2022/04/22 08:14:47;;;;;;;;;;;;;;;;;;4937673;29;19918;-73
2022/04/22 08:17:12;;;;;;;;;;;;;;;;;;4938213;29;19911;-74
2022/04/22 08:19:37;;;;;;;;;;;;;;;;;;4936168;29;19923;-74
2022/04/22 08:22:03;;;;;;;;;;;;;;;;;;4938245;29;19926;-75
2022/04/22 08:24:28;;;;;;;;;;;;;;;;;;4938183;29;19966;-74
2022/04/22 08:26:53;;;;;;;;;;;;;;;;;;4937340;29;19914;-72
2022/04/22 08:29:18;;;;;;;;;;;;;;;;;;4936522;29;19918;-72
2022/04/22 08:31:44;;;;;;;;;;;;;;;;;;4937901;29;19914;-72
2022/04/22 08:34:09;;;;;;;;;;;;;;;;;;4938069;29;19910;-72
2022/04/22 08:36:34;;;;;;;;;;;;;;;;;;4937175;29;20347;-73
2022/04/22 08:39:05;;;;;;;;;;;;;;;;;;4937165;29;20375;-72
2022/04/22 08:41:32;;;;;;;;;;;;;;;;;;4936601;29;19969;-72
2022/04/22 08:43:58;;;;;;;;;;;;;;;;;;4937089;29;19910;-73
2022/04/22 08:51:51;;;;;;;;;;;;;;;;;;4932175;29;20275;-73
2022/04/22 08:54:16;;;;;;;;;;;;;;;;;;4936786;29;19910;-72
2022/04/22 08:56:42;;;;;;;;;;;;;;;;;;4937331;29;20312;-71
2022/04/22 08:59:09;;;;;;;;;;;;;;;;;;4936898;29;19911;-72
2022/04/22 09:01:37;;;;;;;;;;;;;;;;;;4937770;29;19915;-73
2022/04/22 09:04:03;;;;;;;;;;;;;;;;;;4937650;29;19915;-73
2022/04/22 09:06:28;;;;;;;;;;;;;;;;;;4937325;29;19919;-72
2022/04/22 09:08:53;;;;;;;;;;;;;;;;;;4936706;29;20315;-73
2022/04/22 09:11:18;;;;;;;;;;;;;;;;;;4920754;29;20399;-73
2022/04/22 09:13:44;;;;;;;;;;;;;;;;;;4937374;29;19941;-73
2022/04/22 09:16:14;;;;;;;;;;;;;;;;;;4937116;29;20337;-73
2022/04/22 09:18:39;;;;;;;;;;;;;;;;;;4920932;29;20263;-72
2022/04/22 09:21:06;;;;;;;;;;;;;;;;;;4937771;29;19910;-72
2022/04/22 09:23:34;;;;;;;;;;;;;;;;;;4936831;29;19914;-74
2022/04/22 09:26:00;;;;;;;;;;;;;;;;;;4937698;29;20261;-74
2022/04/22 09:28:25;;;;;;;;;;;;;;;;;;4935582;29;19915;-74
2022/04/22 09:31:00;;;;;;;;;;;;;;;;;;4925603;29;19979;-74
2022/04/22 09:33:29;;;;;;;;;;;;;;;;;;4919440;29;19942;-73
2022/04/22 09:44:22;;;;;;;;;;;;;;;;;;4931467;29;19930;-73
2022/04/22 09:46:50;;;;;;;;;;;;;;;;;;4918636;29;19911;-73
2022/04/22 09:49:33;;;;;;;;;;;;;;;;;;4918684;29;19915;-73
2022/04/22 09:52:10;;;;;;;;;;;;;;;;;;4927114;29;20300;-74
2022/04/22 09:54:38;;;;;;;;;;;;;;;;;;4931989;29;19915;-73
2022/04/22 09:57:24;;;;;;;;;;;;;;;;;;4919311;29;19915;-73
2022/04/22 09:59:52;;;;;;;;;;;;;;;;;;4934349;29;19914;-72
2022/04/22 10:02:21;;;;;;;;;;;;;;;;;;4917759;29;20385;-74
2022/04/22 10:04:47;;;;;;;;;;;;;;;;;;4917834;29;19915;-75
2022/04/22 10:07:12;;;;;;;;;;;;;;;;;;4934133;29;20324;-75
2022/04/22 10:09:37;;;;;;;;;;;;;;;;;;4936539;29;19914;-75
2022/04/22 10:12:05;;;;;;;;;;;;;;;;;;4930643;29;19934;-75
2022/04/22 10:14:40;;;;;;;;;;;;;;;;;;4930875;29;20009;-73
2022/04/22 10:17:05;;;;;;;;;;;;;;;;;;4917465;29;19915;-73
2022/04/22 10:19:34;;;;;;;;;;;;;;;;;;4931830;29;19921;-73
2022/04/22 10:22:00;;;;;;;;;;;;;;;;;;4923512;29;19915;-74
2022/04/22 10:24:25;;;;;;;;;;;;;;;;;;4930106;29;19911;-72
2022/04/22 10:26:50;;;;;;;;;;;;;;;;;;4928891;29;19949;-74
2022/04/22 10:29:16;;;;;;;;;;;;;;;;;;4933223;29;20009;-73
2022/04/22 10:31:41;;;;;;;;;;;;;;;;;;4920437;29;19962;-73
2022/04/22 10:34:06;;;;;;;;;;;;;;;;;;4935649;29;19915;-72
2022/04/22 10:36:32;;;;;;;;;;;;;;;;;;4936793;29;19966;-72
2022/04/22 10:38:58;;;;;;;;;;;;;;;;;;4936630;29;19914;-73
2022/04/22 10:41:23;;;;;;;;;;;;;;;;;;4936967;29;19925;-73
2022/04/22 10:47:13;;;;;;;;;;;;;;;;;;4939336;29;19915;-73
2022/04/22 10:49:37;;;;;;;;;;;;;;;;;;4920516;29;19926;-74
2022/04/22 10:52:09;;;;;;;;;;;;;;;;;;4930491;29;19925;-72
2022/04/22 10:54:52;;;;;;;;;;;;;;;;;;4939869;29;20329;-74
2022/04/22 10:57:34;;;;;;;;;;;;;;;;;;4936952;29;20249;-72
2022/04/22 11:00:08;;;;;;;;;;;;;;;;;;4926768;29;20332;-72
2022/04/22 11:02:40;;;;;;;;;;;;;;;;;;4923341;29;19914;-73
2022/04/22 11:05:23;;;;;;;;;;;;;;;;;;4928369;29;19929;-72
2022/04/22 11:07:57;;;;;;;;;;;;;;;;;;4936640;29;19918;-72
2022/04/22 11:10:23;;;;;;;;;;;;;;;;;;4926175;29;19926;-72
2022/04/22 11:12:53;;;;;;;;;;;;;;;;;;4929871;29;20061;-72
2022/04/22 11:15:56;;;;;;;;;;;;;;;;;;4939004;29;19915;-72
2022/04/22 11:18:22;;;;;;;;;;;;;;;;;;4918805;29;20384;-72
2022/04/22 11:20:54;;;;;;;;;;;;;;;;;;4903332;29;19910;-72
2022/04/22 11:23:19;;;;;;;;;;;;;;;;;;4919590;29;20332;-71
2022/04/22 11:25:46;;;;;;;;;;;;;;;;;;4938977;29;19926;-72
2022/04/22 11:28:13;;;;;;;;;;;;;;;;;;4938966;29;19921;-72
2022/04/22 11:30:39;;;;;;;;;;;;;;;;;;4939335;29;19977;-72
2022/04/22 11:33:10;;;;;;;;;;;;;;;;;;4937992;29;19915;-72
2022/04/22 11:35:37;;;;;;;;;;;;;;;;;;4939127;29;19915;-72
2022/04/22 11:38:07;;;;;;;;;;;;;;;;;;4923335;29;20268;-73
2022/04/22 11:40:35;;;;;;;;;;;;;;;;;;4934785;29;20321;-73
2022/04/22 11:43:04;;;;;;;;;;;;;;;;;;4936082;29;19941;-75
2022/04/22 11:45:30;;;;;;;;;;;;;;;;;;4926963;29;19918;-72
2022/04/22 11:47:55;;;;;;;;;;;;;;;;;;4939256;29;19962;-72
2022/04/22 11:50:21;;;;;;;;;;;;;;;;;;4916846;29;19915;-73
2022/04/22 11:52:56;;;;;;;;;;;;;;;;;;4939221;29;20245;-73
2022/04/22 11:55:22;;;;;;;;;;;;;;;;;;4937500;29;19915;-74
2022/04/22 11:57:48;;;;;;;;;;;;;;;;;;4937126;29;20391;-75
2022/04/22 12:05:51;;;;;;;;;;;;;;;;;;4938496;29;19972;-73
2022/04/22 12:08:16;;;;;;;;;;;;;;;;;;4938037;29;19978;-74
2022/04/22 12:10:50;;;;;;;;;;;;;;;;;;4937904;29;19915;-74
2022/04/22 12:13:16;;;;;;;;;;;;;;;;;;4939014;29;19997;-74
2022/04/22 12:16:03;;;;;;;;;;;;;;;;;;4918050;29;19989;-74
2022/04/22 12:18:32;;;;;;;;;;;;;;;;;;4934861;29;19925;-73
2022/04/22 12:21:00;;;;;;;;;;;;;;;;;;4937743;29;19965;-74
2022/04/22 12:23:38;;;;;;;;;;;;;;;;;;4938021;29;20335;-75
2022/04/22 12:26:03;;;;;;;;;;;;;;;;;;4921789;29;20001;-74
2022/04/22 12:28:29;;;;;;;;;;;;;;;;;;4938589;29;20013;-74
2022/04/22 12:30:54;;;;;;;;;;;;;;;;;;4938765;29;19910;-73
2022/04/22 12:33:20;;;;;;;;;;;;;;;;;;4938821;29;19918;-74
2022/04/22 12:35:49;;;;;;;;;;;;;;;;;;4932891;29;19923;-74
2022/04/22 12:38:14;;;;;;;;;;;;;;;;;;4937497;29;20384;-72
2022/04/22 12:40:49;;;;;;;;;;;;;;;;;;4934271;29;19922;-72
2022/04/22 12:43:23;;;;;;;;;;;;;;;;;;4931431;29;19914;-71
2022/04/22 12:54:04;;;;;;;;;;;;;;;;;;4936988;29;19966;-71
2022/04/22 12:56:34;;;;;;;;;;;;;;;;;;4931747;29;19919;-71
2022/04/22 12:59:00;;;;;;;;;;;;;;;;;;4914818;29;19933;-72
2022/04/22 13:01:27;;;;;;;;;;;;;;;;;;4924687;29;19915;-73
2022/04/22 13:03:52;;;;;;;;;;;;;;;;;;4932140;29;19925;-73
2022/04/22 13:06:36;;;;;;;;;;;;;;;;;;4918719;29;19926;-72
2022/04/22 13:09:04;;;;;;;;;;;;;;;;;;4920537;29;19934;-74
2022/04/22 13:11:29;;;;;;;;;;;;;;;;;;4918358;29;19926;-75
2022/04/22 13:13:54;;;;;;;;;;;;;;;;;;4932608;29;20257;-75
2022/04/22 13:16:20;;;;;;;;;;;;;;;;;;4936627;29;19911;-74
2022/04/22 13:18:45;;;;;;;;;;;;;;;;;;4937561;29;19921;-74
2022/04/22 13:21:10;;;;;;;;;;;;;;;;;;4937639;29;19921;-74
2022/04/22 13:23:36;;;;;;;;;;;;;;;;;;4937124;29;19911;-74
2022/04/22 13:26:06;;;;;;;;;;;;;;;;;;4935651;29;20296;-74
2022/04/22 13:28:34;;;;;;;;;;;;;;;;;;4920858;29;19911;-74
2022/04/22 13:30:59;;;;;;;;;;;;;;;;;;4938079;29;19934;-77
2022/04/22 13:33:25;;;;;;;;;;;;;;;;;;4920657;29;19910;-75
2022/04/22 13:35:51;;;;;;;;;;;;;;;;;;4936466;29;19957;-77
2022/04/22 13:38:16;;;;;;;;;;;;;;;;;;4936620;29;19953;-78
2022/04/22 13:40:42;;;;;;;;;;;;;;;;;;4937547;29;20230;-78
2022/04/22 13:43:07;;;;;;;;;;;;;;;;;;4920772;29;19974;-77
2022/04/22 13:53:45;;;;;;;;;;;;;;;;;;4939388;29;19921;-76
2022/04/22 13:56:10;;;;;;;;;;;;;;;;;;4937397;29;19911;-76
2022/04/22 13:58:37;;;;;;;;;;;;;;;;;;4937209;29;20005;-77
2022/04/22 14:01:05;;;;;;;;;;;;;;;;;;4936177;29;19990;-77
2022/04/22 14:03:31;;;;;;;;;;;;;;;;;;4939696;29;19910;-77
2022/04/22 14:05:56;;;;;;;;;;;;;;;;;;4939665;29;20336;-77
2022/04/22 14:08:21;;;;;;;;;;;;;;;;;;4941273;29;19917;-78
2022/04/22 14:10:46;;;;;;;;;;;;;;;;;;4940693;29;20413;-79
2022/04/22 14:13:13;;;;;;;;;;;;;;;;;;4940488;29;19918;-76
2022/04/22 14:15:41;;;;;;;;;;;;;;;;;;4939715;29;19997;-78
2022/04/22 14:18:06;;;;;;;;;;;;;;;;;;4939474;29;19914;-78
2022/04/22 14:20:32;;;;;;;;;;;;;;;;;;4939359;29;19924;-77
2022/04/22 14:22:57;;;;;;;;;;;;;;;;;;4939565;29;20336;-77
2022/04/22 14:25:22;;;;;;;;;;;;;;;;;;4939353;29;19922;-77
2022/04/22 14:27:47;;;;;;;;;;;;;;;;;;4940479;29;19915;-78
2022/04/22 14:30:13;;;;;;;;;;;;;;;;;;4939470;29;20259;-77
2022/04/22 14:32:38;;;;;;;;;;;;;;;;;;4940332;29;19915;-78
2022/04/22 14:35:06;;;;;;;;;;;;;;;;;;4939432;29;20252;-78
2022/04/22 14:37:33;;;;;;;;;;;;;;;;;;4923799;29;19930;-79
2022/04/22 14:39:58;;;;;;;;;;;;;;;;;;4939725;29;19922;-78
2022/04/22 14:42:23;;;;;;;;;;;;;;;;;;4940115;29;19977;-78
2022/04/22 14:44:49;;;;;;;;;;;;;;;;;;4938876;29;20013;-78
2022/04/22 14:47:14;;;;;;;;;;;;;;;;;;4940352;29;19911;-77
2022/04/22 14:49:40;;;;;;;;;;;;;;;;;;4939437;29;19911;-78
2022/04/22 14:52:06;;;;;;;;;;;;;;;;;;4939019;29;19918;-77
2022/04/22 14:54:34;;;;;;;;;;;;;;;;;;4938548;29;19967;-77
2022/04/22 14:56:59;;;;;;;;;;;;;;;;;;4939778;29;20005;-76
2022/04/22 14:59:24;;;;;;;;;;;;;;;;;;4939842;29;20383;-78
2022/04/22 15:01:50;;;;;;;;;;;;;;;;;;4939812;29;20337;-77
2022/04/22 15:04:15;;;;;;;;;;;;;;;;;;4939029;29;19969;-77
2022/04/22 15:06:40;;;;;;;;;;;;;;;;;;4939984;29;20351;-78
2022/04/22 15:09:06;;;;;;;;;;;;;;;;;;4940182;29;19953;-78
2022/04/22 15:11:33;;;;;;;;;;;;;;;;;;4938497;29;19914;-77
2022/04/22 15:14:02;;;;;;;;;;;;;;;;;;4939761;29;20013;-78
2022/04/22 15:16:28;;;;;;;;;;;;;;;;;;4938964;29;19918;-77
2022/04/22 15:24:21;;;;;;;;;;;;;;;;;;4939760;29;19973;-78
2022/04/22 15:26:46;;;;;;;;;;;;;;;;;;4938467;29;20357;-78
2022/04/22 15:29:12;;;;;;;;;;;;;;;;;;4938777;29;19922;-78
2022/04/22 15:31:40;;;;;;;;;;;;;;;;;;4939434;29;19949;-76
2022/04/22 15:34:06;;;;;;;;;;;;;;;;;;4938625;29;19970;-77
2022/04/22 15:36:31;;;;;;;;;;;;;;;;;;4938321;29;19915;-78
2022/04/22 15:38:58;;;;;;;;;;;;;;;;;;4939245;29;19925;-76
2022/04/22 15:41:27;;;;;;;;;;;;;;;;;;4939523;29;20335;-79
2022/04/22 15:43:53;;;;;;;;;;;;;;;;;;4938299;29;19982;-78
2022/04/22 15:46:21;;;;;;;;;;;;;;;;;;4939233;29;19923;-77
2022/04/22 15:48:46;;;;;;;;;;;;;;;;;;4939121;29;19915;-77
2022/04/22 15:51:12;;;;;;;;;;;;;;;;;;4938431;29;19925;-77
2022/04/22 15:53:38;;;;;;;;;;;;;;;;;;4938259;29;19998;-78
2022/04/22 15:56:04;;;;;;;;;;;;;;;;;;4939237;29;19922;-79
2022/04/22 15:58:29;;;;;;;;;;;;;;;;;;4938316;29;19915;-77
2022/04/22 16:00:55;;;;;;;;;;;;;;;;;;4938112;29;19922;-77
2022/04/22 16:03:23;;;;;;;;;;;;;;;;;;4938916;29;19911;-77
2022/04/22 16:05:48;;;;;;;;;;;;;;;;;;4938951;29;19914;-77
2022/04/22 16:08:14;;;;;;;;;;;;;;;;;;4938284;29;19918;-77
2022/04/22 16:10:44;;;;;;;;;;;;;;;;;;4937647;29;19911;-79
2022/04/22 16:15:53;;;;;;;;;;;;;;;;;;4938777;29;19942;-77
2022/04/22 16:18:20;;;;;;;;;;;;;;;;;;4937505;29;19915;-77
2022/04/22 16:20:48;;;;;;;;;;;;;;;;;;4953809;29;20355;-78
2022/04/22 16:23:15;;;;;;;;;;;;;;;;;;4938514;29;19915;-78
2022/04/22 16:25:40;;;;;;;;;;;;;;;;;;4936892;29;20453;-77
2022/04/22 16:28:06;;;;;;;;;;;;;;;;;;4937289;29;19926;-79
2022/04/22 16:30:34;;;;;;;;;;;;;;;;;;4938498;29;19922;-77
2022/04/22 16:32:59;;;;;;;;;;;;;;;;;;4937068;29;19918;-78
2022/04/22 16:35:25;;;;;;;;;;;;;;;;;;4937218;29;19974;-78
2022/04/22 16:37:50;;;;;;;;;;;;;;;;;;4938258;29;19942;-77
2022/04/22 16:40:16;;;;;;;;;;;;;;;;;;4938587;29;19911;-78
2022/04/22 16:42:42;;;;;;;;;;;;;;;;;;4921564;29;20364;-78
2022/04/22 16:45:08;;;;;;;;;;;;;;;;;;4937127;29;20018;-79
2022/04/22 16:47:33;;;;;;;;;;;;;;;;;;4938184;29;19910;-79
2022/04/22 16:50:01;;;;;;;;;;;;;;;;;;4937308;29;19941;-78
2022/04/22 16:52:31;;;;;;;;;;;;;;;;;;4938144;29;20419;-78
2022/04/22 16:54:59;;;;;;;;;;;;;;;;;;4937002;29;19915;-76
2022/04/22 16:57:27;;;;;;;;;;;;;;;;;;4937144;29;19911;-77
2022/04/22 16:59:54;;;;;;;;;;;;;;;;;;4937960;29;20248;-77
2022/04/22 17:02:19;;;;;;;;;;;;;;;;;;4936893;29;20007;-78
2022/04/22 17:04:48;;;;;;;;;;;;;;;;;;4921089;29;19958;-78
2022/04/22 17:07:13;;;;;;;;;;;;;;;;;;4938230;29;19921;-78
2022/04/22 17:09:38;;;;;;;;;;;;;;;;;;4937099;29;19911;-78
2022/04/22 17:12:04;;;;;;;;;;;;;;;;;;4937806;29;19914;-78
2022/04/22 17:22:41;;;;;;;;;;;;;;;;;;4926858;29;19926;-77
2022/04/22 17:25:07;;;;;;;;;;;;;;;;;;4936879;29;19919;-78
2022/04/22 17:27:32;;;;;;;;;;;;;;;;;;4937182;29;19910;-78
2022/04/22 17:29:58;;;;;;;;;;;;;;;;;;4914840;29;20357;-77
2022/04/22 17:32:23;;;;;;;;;;;;;;;;;;4927939;29;20002;-78
2022/04/22 17:34:48;;;;;;;;;;;;;;;;;;4927208;29;20340;-77
2022/04/22 17:37:14;;;;;;;;;;;;;;;;;;4927156;29;20042;-78
2022/04/22 17:39:39;;;;;;;;;;;;;;;;;;4925342;29;19942;-78
2022/04/22 17:42:11;;;;;;;;;;;;;;;;;;4921449;29;20024;-77
2022/04/22 17:44:36;;;;;;;;;;;;;;;;;;4937556;29;19966;-79
2022/04/22 17:47:02;;;;;;;;;;;;;;;;;;4937119;29;19914;-79
2022/04/22 17:49:27;;;;;;;;;;;;;;;;;;4930993;29;19929;-76
2022/04/22 17:51:53;;;;;;;;;;;;;;;;;;4933133;29;19914;-78
2022/04/22 17:54:19;;;;;;;;;;;;;;;;;;4940364;29;20364;-78
2022/04/22 17:56:45;;;;;;;;;;;;;;;;;;4940433;29;19915;-78
2022/04/22 17:59:10;;;;;;;;;;;;;;;;;;4941578;29;19938;-78
2022/04/22 18:01:35;;;;;;;;;;;;;;;;;;4941651;29;19953;-78
2022/04/22 18:04:06;;;;;;;;;;;;;;;;;;4940443;29;19915;-78
2022/04/22 18:06:31;;;;;;;;;;;;;;;;;;4940206;29;19930;-78
2022/04/22 18:08:56;;;;;;;;;;;;;;;;;;4941186;29;19911;-78
2022/04/22 18:11:22;;;;;;;;;;;;;;;;;;4941258;29;19911;-78